Time;durP1;ratioP1;P1;durP2;ratioP2;P2;SDS_P1;SDS_P2;PMS_P1;PMS_P2;Temp;Humidity;BMP_temperature;BMP_pressure;BME280_temperature;BME280_humidity;BME280_pressure;Samples;Min_cycle;Max_cycle;Signal;HPM_P1;HPM_P2
2022/06/20 04:08:03;;;;;;;9.35;4.37;;;;;;;20.31;64.80;100093.12;5617667;31;83266;-53
2022/06/20 04:11:06;;;;;;;7.40;4.45;;;;;;;20.31;64.80;100093.12;5603969;31;33320;-53
2022/06/20 04:14:19;;;;;;;8.18;4.65;;;;;;;19.80;68.03;100095.72;5603633;31;33594;-53
2022/06/20 04:21:37;;;;;;;9.98;4.95;;;;;;;20.08;67.78;100092.94;5598967;31;33520;-54
2022/06/20 04:24:50;;;;;;;8.88;4.53;;;;;;;20.38;65.87;100091.34;5596618;31;33226;-54
2022/06/20 04:28:03;;;;;;;8.15;4.20;;;;;;;20.35;71.60;100096.72;5590612;31;33712;-53
2022/06/20 04:31:27;;;;;;;7.50;4.72;;;;;;;20.45;70.08;100088.00;5583694;31;33605;-54
2022/06/20 04:34:39;;;;;;;8.05;5.20;;;;;;;20.58;66.03;100089.50;5582750;32;34241;-53
2022/06/20 04:37:49;;;;;;;7.07;4.75;;;;;;;20.64;67.48;100085.38;5583903;32;33607;-54
2022/06/20 04:41:05;;;;;;;5.62;4.62;;;;;;;20.73;68.58;100092.53;5583544;32;33713;-53
2022/06/20 04:44:28;;;;;;;8.75;4.70;;;;;;;20.81;68.60;100089.62;5583105;31;33735;-53
2022/06/20 04:47:44;;;;;;;7.37;4.65;;;;;;;20.89;66.36;100087.84;5583707;32;33743;-54
2022/06/20 04:51:13;;;;;;;5.62;4.20;;;;;;;21.09;64.89;100096.81;5583820;32;34469;-53
2022/06/20 04:54:21;;;;;;;8.80;5.15;;;;;;;21.20;68.12;100086.16;5576356;31;33698;-54
2022/06/20 04:57:27;;;;;;;11.95;5.47;;;;;;;21.30;62.99;100094.53;5582935;32;33165;-54
2022/06/20 05:00:38;;;;;;;7.57;4.85;;;;;;;21.47;64.35;100093.34;5583567;32;34245;-54
2022/06/20 05:03:44;;;;;;;13.23;6.32;;;;;;;21.54;63.05;100090.75;5582655;31;33569;-54
2022/06/20 05:06:46;;;;;;;9.88;5.50;;;;;;;21.66;60.24;100091.75;5582179;31;33739;-54
2022/06/20 05:10:06;;;;;;;16.25;5.62;;;;;;;21.77;60.90;100104.41;5581052;32;33763;-53
2022/06/20 05:13:20;;;;;;;8.07;5.22;;;;;;;21.98;58.11;100090.34;5582241;31;34266;-54
2022/06/20 05:16:27;;;;;;;5.60;4.35;;;;;;;22.21;59.48;100090.38;5563814;32;33626;-54
2022/06/20 05:19:41;;;;;;;11.57;5.32;;;;;;;22.51;67.55;100095.91;5567114;32;34570;-54
2022/06/20 05:22:52;;;;;;;7.95;5.28;;;;;;;22.70;60.04;100097.75;5569452;32;33686;-53
2022/06/20 05:25:55;;;;;;;9.52;5.15;;;;;;;22.95;61.78;100095.38;5569792;32;33818;-53
2022/06/20 05:29:01;;;;;;;8.77;5.37;;;;;;;23.23;59.70;100093.38;5568360;32;33896;-53
2022/06/20 05:32:10;;;;;;;11.85;5.53;;;;;;;23.36;55.45;100091.97;5567493;32;33632;-53
2022/06/20 05:35:40;;;;;;;8.60;5.53;;;;;;;23.49;55.16;100104.22;5563085;32;33588;-53
2022/06/20 05:38:58;;;;;;;9.00;5.18;;;;;;;23.59;52.33;100103.56;5563017;32;33661;-54
2022/06/20 05:42:01;;;;;;;9.88;5.55;;;;;;;23.70;53.07;100100.94;5567435;32;33260;-53
2022/06/20 05:45:19;;;;;;;10.38;5.05;;;;;;;23.88;53.46;100101.91;5568859;32;33615;-54
2022/06/20 05:48:27;;;;;;;13.02;5.55;;;;;;;23.95;51.66;100103.16;5561715;32;33617;-53
2022/06/20 05:51:36;;;;;;;13.45;6.37;;;;;;;24.11;53.29;100095.47;5569318;32;33700;-54
2022/06/20 05:54:46;;;;;;;7.93;4.75;;;;;;;24.23;51.12;100099.84;5569089;32;34263;-54
2022/06/20 05:57:50;;;;;;;9.73;5.53;;;;;;;24.25;51.92;100103.81;5569169;32;33734;-53
2022/06/20 06:00:57;;;;;;;12.15;5.70;;;;;;;24.32;52.15;100105.81;5569567;32;32427;-54
2022/06/20 06:04:07;;;;;;;12.15;5.82;;;;;;;24.37;50.57;100110.91;5558078;32;33602;-53
2022/06/20 06:07:14;;;;;;;12.05;6.12;;;;;;;24.42;50.18;100112.56;5569222;32;34295;-53
2022/06/20 06:10:28;;;;;;;17.95;5.82;;;;;;;24.54;50.79;100109.53;5569400;32;34336;-54
2022/06/20 06:13:41;;;;;;;11.05;5.10;;;;;;;24.56;49.74;100102.47;5568547;32;34292;-54
2022/06/20 06:17:43;;;;;;;10.82;5.25;;;;;;;24.65;51.24;100102.16;5568694;32;33741;-54
2022/06/20 06:20:47;;;;;;;10.23;5.72;;;;;;;24.83;49.70;100102.25;5488001;32;34226;-53
2022/06/20 06:23:49;;;;;;;22.98;5.75;;;;;;;24.98;48.39;100101.16;5489262;32;33561;-54
2022/06/20 06:26:56;;;;;;;8.57;5.43;;;;;;;25.03;49.24;100095.31;5566784;31;33691;-54
2022/06/20 06:30:00;;;;;;;13.13;6.43;;;;;;;25.03;48.57;100098.06;5567800;32;34309;-53
2022/06/20 06:33:20;;;;;;;11.10;6.55;;;;;;;25.07;48.94;100095.31;5568811;32;34273;-54
2022/06/20 06:36:31;;;;;;;14.50;5.55;;;;;;;25.12;47.53;100088.72;5568940;32;34348;-54
2022/06/20 06:39:36;;;;;;;10.85;5.72;;;;;;;25.21;48.58;100086.41;5569486;32;33605;-54
2022/06/20 06:42:47;;;;;;;13.82;5.62;;;;;;;25.29;48.77;100087.97;5568776;32;33675;-54
2022/06/20 06:45:53;;;;;;;11.23;5.30;;;;;;;25.43;47.12;100087.22;5568807;32;34189;-54
2022/06/20 06:49:20;;;;;;;11.15;5.05;;;;;;;25.50;47.19;100092.75;5569142;32;34259;-55
2022/06/20 06:52:37;;;;;;;13.18;4.72;;;;;;;25.61;48.03;100093.56;5569135;32;34429;-54
2022/06/20 06:55:45;;;;;;;10.32;4.97;;;;;;;25.78;47.76;100087.31;5568902;32;32315;-54
2022/06/20 06:59:38;;;;;;;6.85;4.47;;;;;;;25.89;46.81;100095.56;5569126;32;33592;-54
2022/06/20 07:03:08;;;;;;;10.30;4.97;;;;;;;25.96;46.91;100086.56;5497814;31;33518;-54
2022/06/20 07:06:25;;;;;;;9.35;4.90;;;;;;;26.02;46.01;100085.78;5562460;32;33520;-54
2022/06/20 07:09:50;;;;;;;10.57;4.62;;;;;;;26.17;44.79;100083.81;5568921;32;33667;-54
2022/06/20 07:12:57;;;;;;;12.00;5.28;;;;;;;26.19;45.87;100064.19;5569000;32;32200;-54
2022/06/20 07:16:03;;;;;;;9.25;4.87;;;;;;;26.27;45.07;100065.75;5568757;32;33556;-55
2022/06/20 07:19:08;;;;;;;11.48;5.53;;;;;;;26.35;44.98;100061.03;5568888;32;34246;-54
2022/06/20 07:22:14;;;;;;;9.15;4.55;;;;;;;26.45;44.46;100060.22;5568701;32;33578;-54
2022/06/20 07:25:25;;;;;;;7.72;4.28;;;;;;;26.53;43.92;100050.84;5567986;32;33856;-54
2022/06/20 07:28:43;;;;;;;12.50;5.00;;;;;;;26.64;44.28;100053.53;5568135;32;33864;-54
2022/06/20 07:31:53;;;;;;;9.32;5.18;;;;;;;26.69;44.21;100047.66;5566716;32;33865;-54
2022/06/20 07:34:59;;;;;;;13.80;4.95;;;;;;;26.79;43.46;100048.78;5568050;32;33990;-54
2022/06/20 07:38:12;;;;;;;;;;;;;;;26.84;43.45;100038.16;5568909;32;33671;-55
2022/06/20 07:41:40;;;;;;;10.23;5.03;;;;;;;26.89;43.20;100026.75;5549117;32;34589;-54
2022/06/20 07:45:02;;;;;;;9.23;5.03;;;;;;;26.97;44.21;100021.22;5553817;32;34197;-54
2022/06/20 07:48:11;;;;;;;16.75;5.57;;;;;;;27.09;43.67;100024.28;5568686;32;34319;-54
2022/06/20 07:51:23;;;;;;;8.55;5.57;;;;;;;27.10;44.12;100017.59;5568401;32;33791;-55
2022/06/20 07:54:32;;;;;;;6.35;4.68;;;;;;;27.15;44.12;100021.91;5567449;32;34319;-55
2022/06/20 07:57:40;;;;;;;12.45;5.28;;;;;;;27.28;43.90;100025.78;5568313;32;33706;-54
2022/06/20 08:00:47;;;;;;;10.70;5.20;;;;;;;27.38;43.78;100015.88;5568291;32;34292;-54
2022/06/20 08:04:00;;;;;;;7.75;4.82;;;;;;;27.46;43.87;100027.66;5567108;32;33872;-55
2022/06/20 08:07:24;;;;;;;13.30;4.85;;;;;;;27.45;44.22;100024.13;5567646;32;34017;-54
2022/06/20 08:10:31;;;;;;;12.68;5.40;;;;;;;27.53;43.26;100019.34;5566553;32;34351;-54
2022/06/20 08:13:43;;;;;;;17.35;5.68;;;;;;;27.57;43.78;100014.59;5567986;32;33648;-55
2022/06/20 08:16:49;;;;;;;13.77;5.40;;;;;;;27.50;44.03;100006.37;5567645;32;33404;-54
2022/06/20 08:19:51;;;;;;;12.93;5.43;;;;;;;27.56;43.72;100004.78;5567269;32;33655;-54
2022/06/20 08:23:25;;;;;;;8.98;5.53;;;;;;;27.52;44.11;100007.56;5567759;32;33561;-54
2022/06/20 08:26:33;;;;;;;13.23;5.78;;;;;;;27.61;43.37;100004.31;5567545;32;32817;-54
2022/06/20 08:30:01;;;;;;;10.88;5.30;;;;;;;27.64;43.63;100004.28;5564685;32;33893;-54
2022/06/20 08:33:27;;;;;;;21.00;5.40;;;;;;;27.74;43.32;100004.62;5567163;32;33696;-54
2022/06/20 08:36:43;;;;;;;15.80;5.47;;;;;;;27.80;43.94;99997.50;5565655;32;34261;-54
2022/06/20 08:39:46;;;;;;;13.68;5.65;;;;;;;27.95;42.95;100000.94;5548187;32;33580;-54
2022/06/20 08:43:10;;;;;;;10.95;5.87;;;;;;;27.88;45.16;99990.75;5547988;32;33570;-54
2022/06/20 08:46:58;;;;;;;10.48;5.60;;;;;;;27.87;43.61;99998.22;5563248;32;33609;-54
2022/06/20 08:50:19;;;;;;;21.00;6.30;;;;;;;27.92;43.75;99987.97;5554225;31;33571;-54
2022/06/20 08:54:16;;;;;;;10.55;5.72;;;;;;;27.92;42.86;99988.75;5569029;32;33556;-53
2022/06/20 08:57:46;;;;;;;9.65;5.78;;;;;;;28.04;42.85;99996.50;5569689;32;33765;-54
2022/06/20 09:01:25;;;;;;;12.45;5.93;;;;;;;28.07;43.21;99987.41;5569162;32;33697;-54
2022/06/20 09:04:37;;;;;;;11.57;6.78;;;;;;;28.20;42.62;99984.94;5569970;32;33555;-55
2022/06/20 09:08:07;;;;;;;16.73;6.37;;;;;;;28.16;42.95;99983.41;5569646;32;34278;-54
2022/06/20 09:11:43;;;;;;;12.30;6.62;;;;;;;28.20;43.20;99978.63;5569715;32;32238;-54
2022/06/20 09:15:16;;;;;;;13.70;6.43;;;;;;;28.29;43.10;99965.94;5550236;32;33441;-54
2022/06/20 09:18:59;;;;;;;11.85;7.00;;;;;;;28.32;42.92;99956.84;5549353;32;34114;-54
2022/06/20 09:22:11;;;;;;;15.85;7.18;;;;;;;28.43;43.12;99962.25;5539909;32;33594;-54
2022/06/20 09:25:36;;;;;;;10.65;6.10;;;;;;;28.48;43.11;99952.78;5570007;32;33918;-54
2022/06/20 09:28:58;;;;;;;12.57;7.00;;;;;;;28.52;43.10;99959.00;5569484;31;33678;-53
2022/06/20 09:32:18;;;;;;;37.92;8.10;;;;;;;28.55;42.72;99950.69;5567281;32;33817;-54
2022/06/20 09:35:50;;;;;;;13.13;6.40;;;;;;;28.53;43.33;99939.28;5568781;32;34299;-54
2022/06/20 09:39:29;;;;;;;13.32;6.28;;;;;;;28.52;42.91;99926.69;5569287;32;33639;-54
2022/06/20 09:42:52;;;;;;;10.20;6.27;;;;;;;28.66;43.20;99922.19;5569369;32;34355;-54
2022/06/20 09:46:31;;;;;;;11.85;6.35;;;;;;;28.64;42.86;99908.03;5569591;32;34321;-54
2022/06/20 09:50:00;;;;;;;6.25;5.40;;;;;;;28.75;42.88;99916.97;5551324;32;33790;-54
2022/06/20 09:53:15;;;;;;;6.85;5.72;;;;;;;28.87;41.55;99910.06;5566408;32;34956;-54
2022/06/20 09:56:33;;;;;;;9.43;5.60;;;;;;;28.90;41.97;99912.78;5568797;32;33751;-55
2022/06/20 09:59:54;;;;;;;10.63;5.60;;;;;;;28.87;41.58;99907.31;5568136;32;33733;-55
2022/06/20 10:03:03;;;;;;;11.18;5.75;;;;;;;28.93;41.72;99908.41;5568767;32;33756;-54
2022/06/20 10:06:23;;;;;;;12.77;5.95;;;;;;;28.96;41.31;99899.31;5562366;32;34383;-54
2022/06/20 10:09:25;;;;;;;9.15;5.78;;;;;;;29.00;41.14;99891.78;5558470;32;33457;-54
2022/06/20 10:12:59;;;;;;;9.93;5.78;;;;;;;28.99;41.50;99896.50;5561631;32;34377;-55
2022/06/20 10:16:28;;;;;;;12.18;6.47;;;;;;;29.17;40.23;99878.91;5556011;32;33738;-54
2022/06/20 10:19:39;;;;;;;8.52;6.37;;;;;;;29.17;40.01;99873.38;5555747;32;33642;-54
2022/06/20 10:23:12;;;;;;;10.80;6.75;;;;;;;29.26;39.80;99881.91;5557299;32;34380;-54
2022/06/20 10:26:14;;;;;;;15.82;7.05;;;;;;;29.35;39.57;99873.09;5558998;32;34463;-54
2022/06/20 10:29:24;;;;;;;12.75;6.82;;;;;;;29.37;39.58;99873.44;5557454;32;33436;-55
2022/06/20 10:32:42;;;;;;;9.63;6.85;;;;;;;29.41;39.65;99871.41;5566697;32;33238;-55
2022/06/20 10:35:45;;;;;;;10.70;5.80;;;;;;;29.41;40.16;99876.94;5563870;32;34367;-54
2022/06/20 10:39:42;;;;;;;9.77;5.82;;;;;;;29.45;39.03;99869.38;5567948;32;33848;-54
2022/06/20 10:43:00;;;;;;;7.97;6.55;;;;;;;29.49;39.93;99862.56;5523222;32;33758;-54
2022/06/20 10:46:11;;;;;;;7.70;6.12;;;;;;;29.56;38.82;99860.88;5564632;32;33826;-54
2022/06/20 10:49:15;;;;;;;11.07;5.93;;;;;;;29.59;38.88;99860.03;5566975;32;33734;-55
2022/06/20 10:52:51;;;;;;;10.75;5.95;;;;;;;29.57;39.20;99867.97;5563275;32;33815;-54
2022/06/20 10:56:21;;;;;;;12.55;6.78;;;;;;;29.63;38.39;99860.78;5567363;32;34326;-54
2022/06/20 11:00:03;;;;;;;9.13;6.75;;;;;;;29.74;38.50;99853.09;5567680;32;34279;-54
2022/06/20 11:03:39;;;;;;;8.93;6.45;;;;;;;29.65;39.21;99864.69;5568233;32;33623;-54
2022/06/20 11:07:05;;;;;;;14.30;6.60;;;;;;;29.66;39.22;99851.66;5567851;32;33333;-54
2022/06/20 11:10:38;;;;;;;10.55;6.70;;;;;;;29.68;38.16;99844.50;5568521;32;33766;-55
2022/06/20 11:13:50;;;;;;;8.60;6.37;;;;;;;29.70;38.43;99831.06;5568440;32;33778;-54
2022/06/20 11:17:09;;;;;;;9.20;6.60;;;;;;;29.73;39.18;99837.69;5567906;32;33631;-54
2022/06/20 11:20:38;;;;;;;8.45;6.10;;;;;;;29.81;38.63;99832.84;5565245;32;34314;-54
2022/06/20 11:23:48;;;;;;;8.25;6.65;;;;;;;29.87;39.12;99822.84;5559322;32;33693;-54
2022/06/20 11:27:08;;;;;;;8.30;5.82;;;;;;;29.92;38.18;99823.13;5553321;32;33808;-54
2022/06/20 11:30:24;;;;;;;8.95;6.20;;;;;;;29.98;38.67;99826.16;5555737;32;33882;-54
2022/06/20 11:34:01;;;;;;;9.18;6.40;;;;;;;29.98;37.99;99825.41;5554032;32;33627;-54
2022/06/20 11:37:26;;;;;;;9.90;6.30;;;;;;;29.90;38.47;99822.78;5551725;32;33706;-54
2022/06/20 11:40:39;;;;;;;11.40;6.15;;;;;;;30.08;38.25;99835.44;5568169;32;33775;-54
2022/06/20 11:44:15;;;;;;;11.32;6.68;;;;;;;30.06;38.64;99824.81;5568618;32;33662;-54
2022/06/20 11:48:01;;;;;;;8.85;6.00;;;;;;;30.06;37.72;99832.31;5566826;32;33747;-54
2022/06/20 11:51:15;;;;;;;9.77;6.60;;;;;;;30.18;38.47;99840.78;5564889;32;34282;-54
2022/06/20 11:54:36;;;;;;;8.13;5.90;;;;;;;30.05;38.40;99825.25;5568644;32;33665;-54
2022/06/20 11:57:52;;;;;;;9.10;6.07;;;;;;;30.04;38.98;99827.22;5549159;32;33688;-55
2022/06/20 12:01:08;;;;;;;7.97;6.25;;;;;;;30.16;38.20;99826.56;5549177;32;33650;-54
2022/06/20 12:04:24;;;;;;;7.30;5.47;;;;;;;30.18;38.29;99829.72;5551189;32;33753;-54
2022/06/20 12:07:40;;;;;;;8.10;5.85;;;;;;;30.24;38.20;99823.69;5568402;32;33771;-55
2022/06/20 12:10:53;;;;;;;7.93;5.65;;;;;;;30.10;39.03;99817.25;5568869;32;33774;-54
2022/06/20 12:14:03;;;;;;;9.55;6.18;;;;;;;30.24;38.02;99824.47;5564342;32;33786;-54
2022/06/20 12:17:20;;;;;;;8.68;5.22;;;;;;;30.24;38.00;99818.94;5564363;32;33697;-54
2022/06/20 12:24:08;;;;;;;9.05;6.00;;;;;;;30.38;36.92;99802.03;5568079;32;34412;-54
2022/06/20 12:27:19;;;;;;;11.18;5.93;;;;;;;30.30;37.70;99803.41;5568252;32;33695;-54
2022/06/20 12:30:21;;;;;;;8.85;5.65;;;;;;;30.34;37.56;99806.88;5565107;32;33648;-55
2022/06/20 12:33:26;;;;;;;6.22;5.37;;;;;;;30.31;37.64;99787.59;5568187;32;33783;-54
2022/06/20 12:36:37;;;;;;;8.88;5.37;;;;;;;30.34;37.62;99767.38;5570502;32;33595;-54
2022/06/20 12:39:46;;;;;;;8.93;5.22;;;;;;;30.33;37.58;99779.63;5570028;32;34255;-54
2022/06/20 12:43:05;;;;;;;7.22;5.12;;;;;;;30.30;36.69;99792.34;5569864;32;34361;-55
2022/06/20 12:46:34;;;;;;;6.30;4.80;;;;;;;30.50;35.87;99780.44;5570329;32;33769;-54
2022/06/20 12:49:54;;;;;;;4.50;3.70;;;;;;;30.40;35.92;99783.03;5570537;32;33278;-56
2022/06/20 12:53:04;;;;;;;5.70;3.80;;;;;;;30.51;30.89;99770.94;5570642;32;34212;-54
2022/06/20 12:56:23;;;;;;;9.73;3.87;;;;;;;30.50;30.83;99767.41;5569983;32;34227;-54
2022/06/20 12:59:43;;;;;;;8.75;3.87;;;;;;;30.56;30.97;99760.16;5569776;32;33760;-54
2022/06/20 13:03:17;;;;;;;10.65;4.90;;;;;;;30.65;31.69;99759.53;5570299;32;33671;-55
2022/06/20 13:06:48;;;;;;;7.53;4.12;;;;;;;30.71;34.63;99765.31;5558704;32;34441;-54
2022/06/20 13:10:02;;;;;;;6.18;4.40;;;;;;;30.56;34.18;99760.16;5550727;32;33624;-55
2022/06/20 13:13:15;;;;;;;;;;;;;;;30.71;33.89;99759.78;5557114;32;33740;-54
2022/06/20 13:16:39;;;;;;;5.47;4.35;;;;;;;30.67;32.55;99757.87;5553317;32;34627;-54
2022/06/20 13:20:15;;;;;;;9.77;4.30;;;;;;;30.85;34.08;99759.47;5559243;32;34190;-55
2022/06/20 13:23:48;;;;;;;5.20;3.92;;;;;;;30.88;34.10;99762.13;5563864;32;33559;-54
2022/06/20 13:27:19;;;;;;;10.60;4.80;;;;;;;30.79;34.66;99758.44;5568163;31;33787;-55
2022/06/20 13:30:35;;;;;;;6.28;4.00;;;;;;;30.81;34.99;99759.56;5563136;32;33270;-55
2022/06/20 13:33:50;;;;;;;13.80;4.70;;;;;;;30.83;32.83;99754.38;5557504;32;33632;-55
2022/06/20 13:37:20;;;;;;;5.62;3.83;;;;;;;30.76;32.90;99749.03;5569338;32;33660;-55
2022/06/20 13:40:33;;;;;;;9.77;3.90;;;;;;;30.74;32.43;99737.56;5568257;32;33724;-54
2022/06/20 13:44:17;;;;;;;9.13;3.70;;;;;;;30.78;31.90;99735.50;5561562;32;34335;-55
2022/06/20 13:47:30;;;;;;;9.77;3.80;;;;;;;30.84;31.92;99725.47;5568281;32;33789;-54
2022/06/20 13:50:46;;;;;;;17.17;4.15;;;;;;;31.07;31.79;99737.56;5569269;32;33687;-54
2022/06/20 13:53:57;;;;;;;9.25;4.32;;;;;;;31.17;31.52;99739.25;5569697;32;33608;-54
2022/06/20 13:57:08;;;;;;;17.20;4.00;;;;;;;31.19;31.68;99730.50;5569760;32;33723;-54
2022/06/20 14:00:16;;;;;;;7.72;4.10;;;;;;;31.15;31.80;99727.84;5564447;32;34227;-55
2022/06/20 14:03:23;;;;;;;6.45;3.60;;;;;;;31.15;32.21;99718.75;5569061;32;34333;-54
2022/06/20 14:06:28;;;;;;;8.98;3.80;;;;;;;31.06;31.63;99703.56;5569460;32;34328;-54
2022/06/20 14:09:43;;;;;;;8.57;3.83;;;;;;;30.99;32.23;99700.97;5568679;32;33748;-54
2022/06/20 14:12:50;;;;;;;6.40;3.58;;;;;;;31.09;32.17;99702.69;5570027;32;33690;-54
2022/06/20 14:16:17;;;;;;;6.22;3.55;;;;;;;31.02;32.11;99711.16;5565946;32;33838;-55
2022/06/20 14:19:29;;;;;;;12.57;3.87;;;;;;;31.06;31.68;99695.25;5569351;32;33676;-54
2022/06/20 14:22:38;;;;;;;6.47;3.40;;;;;;;31.12;31.34;99687.19;5567585;32;33779;-55
2022/06/20 14:25:43;;;;;;;10.10;4.03;;;;;;;31.09;30.94;99696.34;5558070;32;33664;-55
2022/06/20 14:28:47;;;;;;;11.20;4.25;;;;;;;31.09;31.17;99702.69;5569100;32;34412;-55
2022/06/20 14:32:05;;;;;;;6.78;3.28;;;;;;;31.15;30.41;99694.63;5559251;32;34335;-55
2022/06/20 14:35:26;;;;;;;6.45;3.53;;;;;;;31.21;30.03;99701.19;5565255;32;34397;-54
2022/06/20 14:38:40;;;;;;;16.35;3.97;;;;;;;31.21;30.03;99686.56;5567130;32;33638;-54
2022/06/20 14:42:08;;;;;;;8.52;3.67;;;;;;;31.21;30.92;99678.25;5569226;32;33729;-54
2022/06/20 14:45:34;;;;;;;8.50;3.67;;;;;;;31.27;29.67;99670.97;5569350;32;33807;-54
2022/06/20 14:48:51;;;;;;;7.40;3.40;;;;;;;31.31;29.87;99677.16;5569011;32;34360;-54
2022/06/20 14:51:56;;;;;;;7.95;3.40;;;;;;;31.41;30.28;99681.66;5567975;32;33836;-55
2022/06/20 14:55:14;;;;;;;11.10;3.95;;;;;;;31.41;31.57;99681.66;5568828;32;33658;-54
